Time;durP1;ratioP1;P1;durP2;ratioP2;P2;SDS_P1;SDS_P2;PMS_P1;PMS_P2;Temp;Humidity;BMP_temperature;BMP_pressure;BME280_temperature;BME280_humidity;BME280_pressure;Samples;Min_cycle;Max_cycle;Signal;HPM_P1;HPM_P2
2023/01/21 00:01:21;;;;;;;32.40;19.48;;;;;;;;;;6123002;23;20141;-70
2023/01/21 00:03:47;;;;;;;32.25;18.63;;;;;;;;;;6122333;23;19998;-69
2023/01/21 00:06:13;;;;;;;35.30;19.48;;;;;;;;;;6122837;23;20435;-69
2023/01/21 00:08:40;;;;;;;33.08;19.73;;;;;;;;;;6122110;23;20463;-70
2023/01/21 00:11:13;;;;;;;36.05;20.35;;;;;;;;;;6121852;23;20002;-66
2023/01/21 00:13:39;;;;;;;33.13;19.27;;;;;;;;;;6097240;23;20017;-64
2023/01/21 00:16:05;;;;;;;32.90;19.17;;;;;;;;;;6097089;23;20335;-64
2023/01/21 00:18:32;;;;;;;30.80;18.88;;;;;;;;;;6124786;23;20006;-63
2023/01/21 00:20:58;;;;;;;32.47;19.48;;;;;;;;;;6124839;23;20378;-65
2023/01/21 00:23:24;;;;;;;31.90;19.67;;;;;;;;;;6125002;23;19998;-63
2023/01/21 00:25:56;;;;;;;33.33;19.42;;;;;;;;;;6124284;23;20010;-64
2023/01/21 00:28:22;;;;;;;32.92;20.40;;;;;;;;;;6125567;23;20068;-65
2023/01/21 00:30:48;;;;;;;31.60;19.25;;;;;;;;;;6097838;23;20006;-77
2023/01/21 00:33:14;;;;;;;32.85;19.95;;;;;;;;;;6124682;23;20014;-79
2023/01/21 00:35:41;;;;;;;34.80;20.00;;;;;;;;;;6124942;23;20057;-76
2023/01/21 00:38:07;;;;;;;33.13;19.75;;;;;;;;;;6125092;23;20423;-64
2023/01/21 00:40:33;;;;;;;32.78;19.60;;;;;;;;;;6125258;23;20094;-73
2023/01/21 00:42:59;;;;;;;32.65;19.90;;;;;;;;;;6124995;23;20002;-78
2023/01/21 00:45:25;;;;;;;33.70;19.67;;;;;;;;;;6125001;23;20155;-65
2023/01/21 06:36:29;;;;;;;48.97;22.30;;;;;;;;;;6154467;23;19998;-64
2023/01/21 06:38:55;;;;;;;64.75;28.70;;;;;;;;;;6182869;23;20009;-66
2023/01/21 06:41:21;;;;;;;62.60;29.95;;;;;;;;;;6183635;23;20024;-66
2023/01/21 06:43:47;;;;;;;66.50;30.58;;;;;;;;;;6183169;23;20422;-67
2023/01/21 06:46:13;;;;;;;65.25;31.52;;;;;;;;;;6156862;23;20011;-65
2023/01/21 06:48:42;;;;;;;67.65;30.52;;;;;;;;;;6182848;23;20012;-69
2023/01/21 06:51:08;;;;;;;66.53;28.85;;;;;;;;;;6156715;23;20005;-64
2023/01/21 06:53:34;;;;;;;67.50;32.53;;;;;;;;;;6183030;23;20105;-64
2023/01/21 06:56:00;;;;;;;69.25;31.52;;;;;;;;;;6182900;23;20009;-64
2023/01/21 06:58:26;;;;;;;72.45;32.28;;;;;;;;;;6183186;23;20145;-64
2023/01/21 07:00:55;;;;;;;69.50;32.80;;;;;;;;;;6182271;23;20434;-64
2023/01/21 07:03:21;;;;;;;66.47;30.80;;;;;;;;;;6182936;23;20005;-64
2023/01/21 07:05:47;;;;;;;65.80;29.45;;;;;;;;;;6182767;23;20001;-64
2023/01/21 07:08:13;;;;;;;87.65;36.38;;;;;;;;;;6183462;23;20428;-64
2023/01/21 07:10:39;;;;;;;138.98;54.83;;;;;;;;;;6156224;23;20009;-65
2023/01/21 07:13:05;;;;;;;164.77;65.72;;;;;;;;;;6182654;23;20084;-64
2023/01/21 07:15:31;;;;;;;220.35;86.65;;;;;;;;;;6182811;23;20001;-65
2023/01/21 07:17:57;;;;;;;82.25;36.10;;;;;;;;;;6183077;23;20005;-65
2023/01/21 07:20:24;;;;;;;69.15;31.27;;;;;;;;;;6183044;23;20001;-64
2023/01/21 07:22:50;;;;;;;71.35;33.38;;;;;;;;;;6182872;23;20016;-65
2023/01/21 07:25:16;;;;;;;67.25;29.50;;;;;;;;;;6156227;23;20001;-65
2023/01/21 07:27:42;;;;;;;72.22;30.08;;;;;;;;;;6182946;23;20001;-65
2023/01/21 07:30:14;;;;;;;72.20;32.75;;;;;;;;;;6155870;23;20055;-66
2023/01/21 07:32:40;;;;;;;66.50;29.88;;;;;;;;;;6182926;23;20017;-64
2023/01/21 07:35:06;;;;;;;69.93;30.15;;;;;;;;;;6182612;23;20008;-67
2023/01/21 07:37:32;;;;;;;75.82;33.78;;;;;;;;;;6181950;23;20028;-64
2023/01/21 07:39:58;;;;;;;75.78;33.03;;;;;;;;;;6183268;23;20005;-64
2023/01/21 07:42:24;;;;;;;72.85;31.15;;;;;;;;;;6182732;23;20013;-64
2023/01/21 07:44:50;;;;;;;63.50;29.27;;;;;;;;;;6182887;23;20075;-64
2023/01/21 07:47:16;;;;;;;70.63;30.73;;;;;;;;;;6182820;23;20314;-64
2023/01/21 07:49:42;;;;;;;60.88;26.92;;;;;;;;;;6182375;23;20008;-64
2023/01/21 07:52:08;;;;;;;64.43;29.23;;;;;;;;;;6182902;23;20092;-64
2023/01/21 07:54:34;;;;;;;75.35;32.75;;;;;;;;;;6182922;23;20468;-63
2023/01/21 07:57:01;;;;;;;67.05;29.25;;;;;;;;;;6182592;23;20020;-64
2023/01/21 07:59:27;;;;;;;62.05;26.88;;;;;;;;;;6182427;23;20442;-64
2023/01/21 08:01:53;;;;;;;64.43;26.70;;;;;;;;;;6182538;23;20081;-64
2023/01/21 08:04:19;;;;;;;70.38;31.13;;;;;;;;;;6182761;23;20036;-64
2023/01/21 08:06:45;;;;;;;48.58;21.75;;;;;;;;;;6182510;23;20016;-64
2023/01/21 08:09:11;;;;;;;60.40;25.85;;;;;;;;;;6181864;23;20075;-64
2023/01/21 08:11:37;;;;;;;64.38;27.60;;;;;;;;;;6181027;23;20557;-64
2023/01/21 08:14:03;;;;;;;65.45;27.08;;;;;;;;;;6181238;23;20016;-64
2023/01/21 08:16:29;;;;;;;68.28;28.85;;;;;;;;;;6180932;23;20047;-63
2023/01/21 08:18:55;;;;;;;68.53;28.25;;;;;;;;;;6181041;23;20083;-64
2023/01/21 08:21:21;;;;;;;71.00;30.45;;;;;;;;;;6181490;23;20001;-73
2023/01/21 08:23:47;;;;;;;65.45;28.23;;;;;;;;;;6181286;23;20015;-64
2023/01/21 08:26:13;;;;;;;65.90;28.92;;;;;;;;;;6181521;23;20033;-64
2023/01/21 08:28:39;;;;;;;75.07;30.52;;;;;;;;;;6181120;23;20012;-64
2023/01/21 08:31:07;;;;;;;63.95;27.95;;;;;;;;;;6180993;23;20032;-64
2023/01/21 08:33:33;;;;;;;67.93;30.67;;;;;;;;;;6181134;23;20013;-65
2023/01/21 08:36:02;;;;;;;75.30;30.67;;;;;;;;;;6181848;23;20050;-65
2023/01/21 08:38:28;;;;;;;67.78;29.77;;;;;;;;;;6182409;23;20353;-65
2023/01/21 08:40:56;;;;;;;73.05;30.52;;;;;;;;;;6183853;23;20409;-75
2023/01/21 08:43:22;;;;;;;75.15;34.15;;;;;;;;;;6183292;23;20001;-65
2023/01/21 08:45:48;;;;;;;95.47;39.80;;;;;;;;;;6183019;23;20001;-66
2023/01/21 08:48:14;;;;;;;64.97;29.65;;;;;;;;;;6156304;23;20013;-66
2023/01/21 08:50:41;;;;;;;75.95;31.88;;;;;;;;;;6182650;23;20032;-68
2023/01/21 08:53:07;;;;;;;69.03;32.00;;;;;;;;;;6183022;23;20481;-66
2023/01/21 08:55:33;;;;;;;74.65;34.20;;;;;;;;;;6183212;23;20025;-67
2023/01/21 08:57:59;;;;;;;57.83;25.38;;;;;;;;;;6182702;23;20072;-72
2023/01/21 09:00:25;;;;;;;56.88;26.92;;;;;;;;;;6182976;23;20080;-65
2023/01/21 09:02:51;;;;;;;59.38;27.15;;;;;;;;;;6182184;23;20059;-66
2023/01/21 09:05:17;;;;;;;60.85;27.42;;;;;;;;;;6181607;23;20418;-66
2023/01/21 09:07:44;;;;;;;67.60;29.13;;;;;;;;;;6181323;23;20017;-66
2023/01/21 09:10:10;;;;;;;69.45;30.02;;;;;;;;;;6181792;23;20001;-66
2023/01/21 09:12:37;;;;;;;76.28;32.30;;;;;;;;;;6182083;23;20060;-66
2023/01/21 09:15:03;;;;;;;99.60;41.42;;;;;;;;;;6182579;23;20007;-68
2023/01/21 09:17:29;;;;;;;75.45;32.75;;;;;;;;;;6182618;23;20009;-66
2023/01/21 09:19:55;;;;;;;78.95;33.17;;;;;;;;;;6182766;23;20072;-65
2023/01/21 09:22:21;;;;;;;72.78;31.60;;;;;;;;;;6155885;23;20078;-64
2023/01/21 09:24:47;;;;;;;75.20;32.03;;;;;;;;;;6181028;23;20782;-63
2023/01/21 09:27:13;;;;;;;68.65;29.05;;;;;;;;;;6183603;23;20456;-63
2023/01/21 09:29:40;;;;;;;72.22;31.75;;;;;;;;;;6182861;23;20009;-65
2023/01/21 09:32:06;;;;;;;89.78;38.42;;;;;;;;;;6181666;23;20020;-64
2023/01/21 09:34:32;;;;;;;80.57;34.67;;;;;;;;;;6181463;23;20044;-69
2023/01/21 09:36:58;;;;;;;76.32;33.95;;;;;;;;;;6180270;23;20096;-66
2023/01/21 09:39:24;;;;;;;73.70;33.15;;;;;;;;;;6181477;23;20036;-68
2023/01/21 09:41:52;;;;;;;82.20;36.30;;;;;;;;;;6181972;23;20001;-66
2023/01/21 09:44:44;;;;;;;80.57;35.42;;;;;;;;;;6181583;23;20528;-66
2023/01/21 09:47:16;;;;;;;75.30;33.22;;;;;;;;;;6174893;23;20005;-66
2023/01/21 09:49:53;;;;;;;74.45;33.47;;;;;;;;;;6181070;23;20027;-67
2023/01/21 09:52:37;;;;;;;83.35;35.15;;;;;;;;;;6182430;23;20020;-67
2023/01/21 09:55:04;;;;;;;85.38;35.92;;;;;;;;;;6181597;23;20076;-64
2023/01/21 09:57:30;;;;;;;78.60;34.28;;;;;;;;;;6182189;23;19997;-66
2023/01/21 10:00:06;;;;;;;81.85;35.83;;;;;;;;;;6182020;23;20009;-64
2023/01/21 10:02:32;;;;;;;76.93;33.50;;;;;;;;;;6182140;23;19997;-65
2023/01/21 10:05:21;;;;;;;89.60;38.80;;;;;;;;;;6182167;23;20011;-71
2023/01/21 10:08:10;;;;;;;88.85;38.15;;;;;;;;;;6163087;23;20017;-66
2023/01/21 10:10:48;;;;;;;83.93;36.97;;;;;;;;;;6183399;23;20036;-68
2023/01/21 10:13:35;;;;;;;74.55;32.70;;;;;;;;;;6183248;23;20013;-67
2023/01/21 10:16:10;;;;;;;78.90;35.17;;;;;;;;;;6183384;23;20023;-65
2023/01/21 10:18:37;;;;;;;74.75;32.63;;;;;;;;;;6182984;23;20001;-64
2023/01/21 10:21:37;;;;;;;88.60;38.55;;;;;;;;;;6183118;23;20001;-68
2023/01/21 10:24:14;;;;;;;85.47;37.97;;;;;;;;;;6034148;23;20010;-66
2023/01/21 10:26:43;;;;;;;83.78;35.58;;;;;;;;;;6034809;23;20015;-63
2023/01/21 10:29:13;;;;;;;84.97;37.25;;;;;;;;;;6034413;23;20014;-63
2023/01/21 10:31:42;;;;;;;84.13;37.35;;;;;;;;;;6033922;23;20047;-67
2023/01/21 10:34:17;;;;;;;80.15;35.78;;;;;;;;;;6033816;23;20015;-65
2023/01/21 10:36:52;;;;;;;85.90;38.30;;;;;;;;;;6033010;23;20011;-68
2023/01/21 10:39:24;;;;;;;94.90;43.03;;;;;;;;;;6032888;23;20026;-65
2023/01/21 10:41:53;;;;;;;77.57;38.22;;;;;;;;;;6032355;23;20077;-73
2023/01/21 10:44:25;;;;;;;88.35;39.35;;;;;;;;;;6032356;23;20130;-69
2023/01/21 10:47:09;;;;;;;79.60;36.50;;;;;;;;;;6032861;23;20511;-63
2023/01/21 10:49:35;;;;;;;73.45;32.83;;;;;;;;;;6008852;23;20004;-73
2023/01/21 10:52:15;;;;;;;82.18;35.20;;;;;;;;;;6033379;23;20051;-65
2023/01/21 10:54:51;;;;;;;87.60;37.58;;;;;;;;;;6033052;23;20014;-68
2023/01/21 10:57:28;;;;;;;81.70;36.00;;;;;;;;;;6032205;23;20018;-63
2023/01/21 10:59:56;;;;;;;82.20;35.80;;;;;;;;;;6098158;23;20009;-64
2023/01/21 11:02:27;;;;;;;89.70;39.38;;;;;;;;;;6153042;23;20008;-66
2023/01/21 11:04:54;;;;;;;84.00;37.33;;;;;;;;;;6126586;23;20068;-69
2023/01/21 11:07:20;;;;;;;94.10;41.08;;;;;;;;;;6152796;23;20024;-72
2023/01/21 11:09:47;;;;;;;73.68;35.20;;;;;;;;;;6153089;23;20437;-68
2023/01/21 11:12:16;;;;;;;74.80;34.70;;;;;;;;;;6152610;23;20083;-67
2023/01/21 11:14:44;;;;;;;78.93;35.30;;;;;;;;;;6152950;23;20084;-68
2023/01/21 11:17:10;;;;;;;76.05;35.70;;;;;;;;;;6153348;23;20512;-65
2023/01/21 11:19:36;;;;;;;73.07;34.25;;;;;;;;;;6152914;23;20005;-69
2023/01/21 11:22:19;;;;;;;70.10;34.10;;;;;;;;;;6153032;23;20012;-68
2023/01/21 11:24:46;;;;;;;91.78;43.65;;;;;;;;;;6153120;23;20010;-67
2023/01/21 11:27:30;;;;;;;87.00;38.85;;;;;;;;;;6152875;23;20015;-69
2023/01/21 11:29:56;;;;;;;85.53;39.60;;;;;;;;;;6152867;23;20088;-70
2023/01/21 11:32:24;;;;;;;97.82;44.60;;;;;;;;;;6152929;23;20005;-66
2023/01/21 11:35:09;;;;;;;75.10;33.88;;;;;;;;;;6152932;23;20441;-67
2023/01/21 11:37:36;;;;;;;125.65;62.10;;;;;;;;;;6166641;23;20103;-66
2023/01/21 11:40:07;;;;;;;367.35;202.82;;;;;;;;;;6182954;23;20056;-71
2023/01/21 11:42:45;;;;;;;99.95;52.28;;;;;;;;;;6182536;23;20001;-66
2023/01/21 11:45:20;;;;;;;112.55;55.90;;;;;;;;;;6182448;23;20033;-67
2023/01/21 11:47:47;;;;;;;78.65;38.08;;;;;;;;;;6182493;23;20051;-67
2023/01/21 11:50:15;;;;;;;216.30;118.80;;;;;;;;;;6182328;23;20422;-67
2023/01/21 11:52:41;;;;;;;134.77;73.40;;;;;;;;;;6182291;23;20505;-67
2023/01/21 11:55:24;;;;;;;70.88;34.60;;;;;;;;;;6183113;23;20402;-66
2023/01/21 11:57:54;;;;;;;111.90;55.00;;;;;;;;;;6182581;23;20330;-68
2023/01/21 12:00:23;;;;;;;121.43;58.75;;;;;;;;;;6182383;23;19997;-67
2023/01/21 12:02:57;;;;;;;67.60;34.92;;;;;;;;;;6182403;23;20085;-69
2023/01/21 12:05:26;;;;;;;66.10;34.05;;;;;;;;;;6183079;23;20051;-67
2023/01/21 12:07:52;;;;;;;79.60;37.53;;;;;;;;;;6182985;23;20009;-69
2023/01/21 12:10:31;;;;;;;82.35;38.78;;;;;;;;;;6156053;23;20067;-67
2023/01/21 12:13:00;;;;;;;63.92;31.45;;;;;;;;;;6184419;23;20420;-66
2023/01/21 12:15:29;;;;;;;111.60;50.72;;;;;;;;;;6184435;23;20004;-67
2023/01/21 12:18:01;;;;;;;94.97;47.28;;;;;;;;;;6184608;23;20080;-67
2023/01/21 12:20:35;;;;;;;72.20;34.25;;;;;;;;;;6184205;23;20005;-68
2023/01/21 12:23:19;;;;;;;65.63;33.63;;;;;;;;;;6184492;23;20009;-67
2023/01/21 12:25:57;;;;;;;110.55;53.92;;;;;;;;;;6184380;23;20075;-68
2023/01/21 12:28:23;;;;;;;64.88;33.38;;;;;;;;;;6184193;23;20012;-67
2023/01/21 12:31:08;;;;;;;74.57;35.15;;;;;;;;;;6184205;23;20068;-66
2023/01/21 12:33:36;;;;;;;69.50;35.22;;;;;;;;;;6183990;23;20017;-68
2023/01/21 12:36:09;;;;;;;89.03;43.35;;;;;;;;;;6184165;23;20008;-67
2023/01/21 12:38:40;;;;;;;74.30;37.80;;;;;;;;;;6183811;23;20029;-66
2023/01/21 12:41:21;;;;;;;73.75;37.95;;;;;;;;;;6183900;23;20008;-66
2023/01/21 12:43:54;;;;;;;65.15;33.00;;;;;;;;;;6184228;23;20001;-67
2023/01/21 12:46:22;;;;;;;63.90;33.22;;;;;;;;;;6184498;23;20009;-70
2023/01/21 12:48:53;;;;;;;57.25;29.65;;;;;;;;;;6183334;23;20008;-67
2023/01/21 12:51:19;;;;;;;62.72;28.98;;;;;;;;;;6183790;23;20098;-67
2023/01/21 12:53:49;;;;;;;58.47;28.77;;;;;;;;;;6183778;23;20016;-67
2023/01/21 12:56:18;;;;;;;55.35;27.05;;;;;;;;;;6183864;23;20008;-67
2023/01/21 12:58:55;;;;;;;55.78;29.30;;;;;;;;;;6183640;23;20001;-68
2023/01/21 13:01:30;;;;;;;57.95;29.38;;;;;;;;;;6182340;23;20005;-67
2023/01/21 13:04:14;;;;;;;55.95;28.58;;;;;;;;;;6183931;23;20001;-68
2023/01/21 13:06:43;;;;;;;64.95;34.88;;;;;;;;;;6183496;23;20321;-67
2023/01/21 13:09:35;;;;;;;55.53;28.52;;;;;;;;;;6182808;23;20059;-67
2023/01/21 13:12:04;;;;;;;57.13;29.02;;;;;;;;;;6176378;23;20093;-67
2023/01/21 13:14:32;;;;;;;59.80;32.30;;;;;;;;;;6183583;23;20418;-67
2023/01/21 13:17:01;;;;;;;66.70;33.90;;;;;;;;;;6183558;23;20051;-66
2023/01/21 13:19:27;;;;;;;61.88;33.35;;;;;;;;;;6184051;23;20532;-67
2023/01/21 13:21:56;;;;;;;58.97;30.63;;;;;;;;;;6183846;23;20029;-67
2023/01/21 13:24:25;;;;;;;60.80;31.10;;;;;;;;;;6182212;23;20315;-66
2023/01/21 13:26:56;;;;;;;59.72;30.80;;;;;;;;;;6183492;23;20001;-70
2023/01/21 13:29:41;;;;;;;61.77;30.97;;;;;;;;;;6183279;23;20012;-67
2023/01/21 13:32:16;;;;;;;62.92;33.13;;;;;;;;;;6183621;23;20005;-66
2023/01/21 13:34:52;;;;;;;61.15;31.63;;;;;;;;;;6183909;23;20009;-66
2023/01/21 13:37:29;;;;;;;53.28;28.27;;;;;;;;;;6182466;23;20009;-66
2023/01/21 13:40:13;;;;;;;54.80;30.00;;;;;;;;;;6183648;23;20008;-66
2023/01/21 13:42:51;;;;;;;52.72;28.17;;;;;;;;;;6183148;23;20486;-66
2023/01/21 13:45:32;;;;;;;55.15;27.52;;;;;;;;;;6183601;23;20001;-67
2023/01/21 13:47:58;;;;;;;47.45;25.85;;;;;;;;;;6183476;23;20385;-67
2023/01/21 13:50:27;;;;;;;59.05;30.13;;;;;;;;;;6183016;23;20079;-69
2023/01/21 13:53:15;;;;;;;48.67;26.38;;;;;;;;;;6183012;23;20013;-66
2023/01/21 13:55:47;;;;;;;51.22;27.00;;;;;;;;;;6182900;23;20029;-66
2023/01/21 13:58:24;;;;;;;77.30;37.22;;;;;;;;;;6183650;23;20326;-70
2023/01/21 14:00:54;;;;;;;57.85;29.50;;;;;;;;;;6183026;23;20001;-66
2023/01/21 14:03:26;;;;;;;69.35;33.55;;;;;;;;;;6183490;23;20438;-65
2023/01/21 14:05:55;;;;;;;63.60;30.77;;;;;;;;;;6183274;23;20024;-68
2023/01/21 14:08:24;;;;;;;101.47;45.85;;;;;;;;;;6156880;23;20016;-66
2023/01/21 14:10:52;;;;;;;53.58;26.90;;;;;;;;;;6183322;23;20001;-66
2023/01/21 14:13:30;;;;;;;44.25;23.92;;;;;;;;;;6183310;23;20013;-70
2023/01/21 14:16:15;;;;;;;48.92;24.83;;;;;;;;;;6156707;23;20005;-66
2023/01/21 14:18:59;;;;;;;47.15;25.27;;;;;;;;;;6183003;23;20023;-66
2023/01/21 14:21:34;;;;;;;47.20;25.95;;;;;;;;;;6183209;23;20004;-67
2023/01/21 14:24:09;;;;;;;41.97;23.55;;;;;;;;;;6182820;23;20413;-66
2023/01/21 14:26:46;;;;;;;41.90;23.30;;;;;;;;;;6183243;23;20036;-66
2023/01/21 14:29:33;;;;;;;48.05;26.45;;;;;;;;;;6182899;23;20005;-66
2023/01/21 14:32:05;;;;;;;46.75;26.70;;;;;;;;;;6182465;23;20001;-66
2023/01/21 14:34:34;;;;;;;40.70;21.95;;;;;;;;;;6182550;23;20008;-65
2023/01/21 14:37:17;;;;;;;39.90;21.38;;;;;;;;;;6155878;23;20350;-65
2023/01/21 14:39:49;;;;;;;38.88;22.00;;;;;;;;;;6182684;23;20001;-66
2023/01/21 14:42:17;;;;;;;58.37;27.20;;;;;;;;;;6182995;23;20056;-69
2023/01/21 14:44:43;;;;;;;72.28;30.52;;;;;;;;;;6183200;23;20043;-66
2023/01/21 14:47:15;;;;;;;48.45;23.02;;;;;;;;;;6182818;23;20005;-66
2023/01/21 14:49:43;;;;;;;38.80;21.10;;;;;;;;;;6182649;23;20009;-66
2023/01/21 14:52:13;;;;;;;60.40;27.48;;;;;;;;;;6182866;23;20079;-65
2023/01/21 14:54:42;;;;;;;66.20;31.40;;;;;;;;;;6156373;23;20012;-66
2023/01/21 14:57:21;;;;;;;42.20;22.40;;;;;;;;;;6183097;23;20036;-66
2023/01/21 14:59:47;;;;;;;45.97;24.15;;;;;;;;;;6182986;23;20401;-66
2023/01/21 15:02:22;;;;;;;48.00;24.27;;;;;;;;;;6182628;23;20438;-67
2023/01/21 15:04:54;;;;;;;41.38;23.58;;;;;;;;;;6182679;23;20080;-66
2023/01/21 15:07:23;;;;;;;30.92;17.38;;;;;;;;;;6182594;23;20017;-66
2023/01/21 15:09:53;;;;;;;37.58;21.45;;;;;;;;;;6182627;23;20076;-67
2023/01/21 15:12:23;;;;;;;36.00;19.02;;;;;;;;;;6182619;23;20048;-66
2023/01/21 15:14:49;;;;;;;35.63;20.52;;;;;;;;;;6182698;23;19997;-65
2023/01/21 15:17:34;;;;;;;36.20;19.55;;;;;;;;;;6182566;23;20067;-68
2023/01/21 15:20:20;;;;;;;40.75;21.63;;;;;;;;;;6182709;23;20015;-66
2023/01/21 15:23:02;;;;;;;41.92;22.85;;;;;;;;;;6182527;23;20001;-68
2023/01/21 15:25:35;;;;;;;82.78;37.95;;;;;;;;;;6182579;23;20008;-68
2023/01/21 15:28:20;;;;;;;75.93;37.58;;;;;;;;;;6182604;23;20076;-68
2023/01/21 15:30:57;;;;;;;54.97;27.73;;;;;;;;;;6182466;23;20345;-66
2023/01/21 15:33:23;;;;;;;48.05;25.70;;;;;;;;;;6182301;23;20017;-66
2023/01/21 15:35:50;;;;;;;50.05;25.80;;;;;;;;;;6182509;23;20402;-70
2023/01/21 15:38:16;;;;;;;55.38;29.15;;;;;;;;;;6181091;23;20021;-67
2023/01/21 15:41:00;;;;;;;52.38;27.67;;;;;;;;;;6182265;23;20658;-67
2023/01/21 15:43:43;;;;;;;75.70;37.85;;;;;;;;;;6181707;23;20437;-71
2023/01/21 15:46:29;;;;;;;62.35;33.25;;;;;;;;;;6183044;23;20088;-64
2023/01/21 15:48:55;;;;;;;43.38;24.85;;;;;;;;;;6182981;23;20773;-70
2023/01/21 15:51:40;;;;;;;47.58;24.23;;;;;;;;;;6183856;23;20083;-71
2023/01/21 15:54:09;;;;;;;55.30;27.83;;;;;;;;;;6183729;23;20017;-63
2023/01/21 15:56:35;;;;;;;51.05;25.83;;;;;;;;;;6183430;23;20409;-65
2023/01/21 15:59:01;;;;;;;44.95;23.48;;;;;;;;;;6184141;23;20064;-65
2023/01/21 16:01:28;;;;;;;49.50;24.75;;;;;;;;;;6183654;23;20013;-65
2023/01/21 16:04:12;;;;;;;39.85;21.33;;;;;;;;;;6183228;23;20016;-72
2023/01/21 16:06:39;;;;;;;36.03;21.08;;;;;;;;;;6183226;23;20041;-64
2023/01/21 16:09:05;;;;;;;40.60;21.35;;;;;;;;;;6183212;23;20005;-65
2023/01/21 16:11:43;;;;;;;46.15;23.92;;;;;;;;;;6183127;23;20008;-64
2023/01/21 16:14:15;;;;;;;46.25;24.05;;;;;;;;;;6183560;23;20020;-65
2023/01/21 16:16:56;;;;;;;43.60;23.45;;;;;;;;;;6183198;23;20003;-65
2023/01/21 16:19:31;;;;;;;44.70;24.00;;;;;;;;;;6184160;23;20001;-65
2023/01/21 16:21:58;;;;;;;70.18;33.67;;;;;;;;;;6184448;23;20503;-64
2023/01/21 16:24:26;;;;;;;65.13;33.75;;;;;;;;;;6184001;23;20429;-65
2023/01/21 16:26:52;;;;;;;61.00;30.63;;;;;;;;;;6184480;23;20512;-64
2023/01/21 16:29:18;;;;;;;58.20;31.98;;;;;;;;;;6184105;23;19997;-64
2023/01/21 16:31:49;;;;;;;50.83;30.33;;;;;;;;;;6184125;23;20092;-65
2023/01/21 16:34:22;;;;;;;54.75;30.52;;;;;;;;;;6184426;23;20150;-64
2023/01/21 16:36:48;;;;;;;55.58;30.73;;;;;;;;;;6183835;23;20422;-64
2023/01/21 16:39:18;;;;;;;62.33;32.67;;;;;;;;;;6184378;23;20012;-64
2023/01/21 16:41:58;;;;;;;59.63;32.58;;;;;;;;;;6184353;23;20004;-64
2023/01/21 16:44:24;;;;;;;70.45;39.55;;;;;;;;;;6184185;23;20016;-63
2023/01/21 16:46:51;;;;;;;63.05;36.00;;;;;;;;;;6184044;23;20875;-66
2023/01/21 16:49:18;;;;;;;73.13;39.53;;;;;;;;;;6184467;23;20367;-65
2023/01/21 16:51:53;;;;;;;75.32;39.50;;;;;;;;;;6184010;23;20420;-63
2023/01/21 16:54:19;;;;;;;78.30;42.97;;;;;;;;;;6184258;23;20013;-63
2023/01/21 16:56:47;;;;;;;90.55;47.92;;;;;;;;;;6183700;23;20005;-70
2023/01/21 16:59:26;;;;;;;94.07;50.25;;;;;;;;;;6183794;23;20000;-65
2023/01/21 17:01:52;;;;;;;97.80;50.92;;;;;;;;;;6183172;23;20008;-65
2023/01/21 17:04:18;;;;;;;102.13;51.78;;;;;;;;;;6183698;23;20031;-65
2023/01/21 17:06:45;;;;;;;102.72;51.78;;;;;;;;;;6183831;23;20482;-65
2023/01/21 17:09:32;;;;;;;108.90;54.55;;;;;;;;;;6183748;23;20001;-66
2023/01/21 17:12:01;;;;;;;99.38;51.25;;;;;;;;;;6183733;23;20005;-70
2023/01/21 17:14:29;;;;;;;101.22;51.08;;;;;;;;;;6184099;23;20456;-63
2023/01/21 17:16:56;;;;;;;92.35;47.78;;;;;;;;;;6184445;23;20370;-64
2023/01/21 17:19:24;;;;;;;93.07;46.97;;;;;;;;;;6183198;23;20005;-65
2023/01/21 17:21:54;;;;;;;88.05;47.17;;;;;;;;;;6183526;23;20062;-64
2023/01/21 17:24:34;;;;;;;89.68;47.80;;;;;;;;;;6183971;23;20001;-64
2023/01/21 17:27:06;;;;;;;91.10;48.55;;;;;;;;;;6184133;23;20426;-64
2023/01/21 17:29:33;;;;;;;93.20;48.03;;;;;;;;;;6183794;23;20008;-64
2023/01/21 17:32:01;;;;;;;87.18;46.42;;;;;;;;;;6183630;23;20012;-64
2023/01/21 17:34:28;;;;;;;79.22;43.63;;;;;;;;;;6183617;23;20009;-71
2023/01/21 17:36:55;;;;;;;83.10;44.00;;;;;;;;;;6182785;23;20016;-65
2023/01/21 17:39:40;;;;;;;82.57;43.35;;;;;;;;;;6183567;23;20032;-65
2023/01/21 17:42:13;;;;;;;78.28;43.08;;;;;;;;;;6183732;23;20012;-69
2023/01/21 17:44:39;;;;;;;75.55;40.40;;;;;;;;;;6183575;23;20009;-65
2023/01/21 17:47:05;;;;;;;74.20;39.63;;;;;;;;;;6182395;23;20005;-64
2023/01/21 17:49:31;;;;;;;73.35;38.33;;;;;;;;;;6182204;23;20036;-69
2023/01/21 17:51:57;;;;;;;69.85;36.58;;;;;;;;;;6182466;23;20005;-65
2023/01/21 17:54:25;;;;;;;74.30;38.05;;;;;;;;;;6183276;23;20028;-66
2023/01/21 17:56:54;;;;;;;75.53;39.08;;;;;;;;;;6182716;23;20008;-66
2023/01/21 17:59:40;;;;;;;122.70;65.03;;;;;;;;;;6182535;23;20009;-66
2023/01/21 18:02:10;;;;;;;95.25;49.88;;;;;;;;;;6182563;23;20063;-64
2023/01/21 18:04:36;;;;;;;92.93;51.85;;;;;;;;;;6182519;23;19997;-65
2023/01/21 18:07:02;;;;;;;93.88;50.50;;;;;;;;;;6181936;23;20020;-65
2023/01/21 18:09:29;;;;;;;99.43;51.63;;;;;;;;;;6182181;23;20011;-65
2023/01/21 18:11:57;;;;;;;85.00;44.67;;;;;;;;;;6181679;23;20027;-65
2023/01/21 18:14:24;;;;;;;80.57;43.80;;;;;;;;;;6182066;23;20005;-66
2023/01/21 18:16:52;;;;;;;81.90;43.92;;;;;;;;;;6182213;23;20008;-65
2023/01/21 18:19:27;;;;;;;82.00;42.88;;;;;;;;;;6182444;23;20005;-65
2023/01/21 18:21:53;;;;;;;84.72;47.47;;;;;;;;;;6182247;23;20020;-65
2023/01/21 18:24:19;;;;;;;93.32;48.60;;;;;;;;;;6182225;23;20013;-69
2023/01/21 18:26:46;;;;;;;93.82;50.00;;;;;;;;;;6181981;23;20080;-65
2023/01/21 18:29:12;;;;;;;101.47;54.67;;;;;;;;;;6182335;23;20422;-64
2023/01/21 18:31:39;;;;;;;103.72;56.15;;;;;;;;;;6181972;23;19997;-65
2023/01/21 18:34:09;;;;;;;120.45;63.15;;;;;;;;;;6181996;23;20337;-65
2023/01/21 18:36:36;;;;;;;135.63;71.57;;;;;;;;;;6181591;23;20330;-65
2023/01/21 18:39:02;;;;;;;142.50;74.45;;;;;;;;;;6182085;23;20039;-64
2023/01/21 18:41:28;;;;;;;165.82;84.88;;;;;;;;;;6181671;23;20005;-65
2023/01/21 18:43:54;;;;;;;153.20;82.40;;;;;;;;;;6181852;23;20076;-66
2023/01/21 18:46:20;;;;;;;154.55;80.32;;;;;;;;;;6181848;23;20005;-64
2023/01/21 18:48:46;;;;;;;159.73;84.45;;;;;;;;;;6181566;23;20016;-65
2023/01/21 18:51:13;;;;;;;153.48;79.85;;;;;;;;;;6181620;23;20072;-67
2023/01/21 18:53:39;;;;;;;140.13;76.93;;;;;;;;;;6181955;23;20045;-65
2023/01/21 18:56:05;;;;;;;150.65;78.82;;;;;;;;;;6182083;23;20055;-64
2023/01/21 18:58:32;;;;;;;150.32;80.03;;;;;;;;;;6181970;23;20001;-66
2023/01/21 19:00:58;;;;;;;144.88;74.43;;;;;;;;;;6182709;23;20008;-66
2023/01/21 19:03:24;;;;;;;138.48;73.25;;;;;;;;;;6181840;23;20005;-72
2023/01/21 19:05:50;;;;;;;143.75;75.78;;;;;;;;;;6181655;23;20005;-65
2023/01/21 19:08:18;;;;;;;136.32;71.50;;;;;;;;;;6181426;23;20434;-64
2023/01/21 19:10:44;;;;;;;167.82;85.22;;;;;;;;;;6181828;23;20004;-65
2023/01/21 19:13:11;;;;;;;152.43;79.22;;;;;;;;;;6182787;23;20016;-66
2023/01/21 19:15:37;;;;;;;145.32;74.85;;;;;;;;;;6182978;23;20734;-72
2023/01/21 19:18:09;;;;;;;142.57;73.07;;;;;;;;;;6182537;23;20001;-67
2023/01/21 19:20:39;;;;;;;152.10;77.38;;;;;;;;;;6182728;23;20001;-67
2023/01/21 19:23:06;;;;;;;162.02;80.88;;;;;;;;;;6182964;23;20001;-66
2023/01/21 19:25:32;;;;;;;186.10;91.90;;;;;;;;;;6182436;23;20005;-67
2023/01/21 19:27:58;;;;;;;200.32;95.70;;;;;;;;;;6182424;23;20009;-64
2023/01/21 19:30:26;;;;;;;199.98;99.05;;;;;;;;;;6182344;23;20008;-72
2023/01/21 19:32:52;;;;;;;184.20;90.22;;;;;;;;;;6182052;23;20041;-71
2023/01/21 19:35:20;;;;;;;168.98;83.75;;;;;;;;;;6182837;23;19997;-71
2023/01/21 19:37:50;;;;;;;155.10;75.60;;;;;;;;;;6182486;23;20064;-64
2023/01/21 19:40:20;;;;;;;150.63;71.05;;;;;;;;;;6182632;23;20437;-66
2023/01/21 19:42:47;;;;;;;148.52;69.80;;;;;;;;;;6182491;23;20028;-70
2023/01/21 19:45:13;;;;;;;144.48;65.20;;;;;;;;;;6182336;23;20005;-67
2023/01/21 19:47:40;;;;;;;140.98;67.47;;;;;;;;;;6182699;23;20009;-69
2023/01/21 19:50:10;;;;;;;139.57;63.63;;;;;;;;;;6182559;23;20436;-66
2023/01/21 19:52:37;;;;;;;141.60;64.32;;;;;;;;;;6182418;23;20433;-66
2023/01/21 19:55:03;;;;;;;150.50;68.63;;;;;;;;;;6182442;23;20406;-67
2023/01/21 19:57:29;;;;;;;151.82;70.85;;;;;;;;;;6182588;23;20028;-66
2023/01/21 19:59:55;;;;;;;154.45;72.63;;;;;;;;;;6182639;23;20009;-66
2023/01/21 20:02:21;;;;;;;159.52;74.28;;;;;;;;;;6181582;23;20028;-66
2023/01/21 20:04:47;;;;;;;154.45;74.15;;;;;;;;;;6181617;23;20484;-67
2023/01/21 20:07:14;;;;;;;153.82;75.20;;;;;;;;;;6182368;23;20493;-71
2023/01/21 20:09:40;;;;;;;158.70;75.78;;;;;;;;;;6182370;23;20047;-72
2023/01/21 20:12:08;;;;;;;154.38;73.53;;;;;;;;;;6182863;23;20016;-66
2023/01/21 20:14:34;;;;;;;170.25;81.80;;;;;;;;;;6182839;23;20070;-67
2023/01/21 20:17:01;;;;;;;182.32;88.43;;;;;;;;;;6182356;23;19997;-66
2023/01/21 20:19:27;;;;;;;169.45;83.20;;;;;;;;;;6183203;23;20036;-66